Time;durP1;ratioP1;P1;durP2;ratioP2;P2;SDS_P1;SDS_P2;PMS_P1;PMS_P2;Temp;Humidity;BMP_temperature;BMP_pressure;BME280_temperature;BME280_humidity;BME280_pressure;Samples;Min_cycle;Max_cycle;Signal;HPM_P1;HPM_P2
2022/01/07 00:01:17;;;;;;;9.05;2.92;;;4.30;91.70;;;;;;4991078;28;20086;-73
2022/01/07 00:03:45;;;;;;;7.35;2.42;;;4.30;91.70;;;;;;4965254;28;20514;-73
2022/01/07 00:06:12;;;;;;;8.38;3.28;;;4.30;91.60;;;;;;4967676;28;20058;-73
2022/01/07 00:08:39;;;;;;;8.18;2.63;;;4.30;91.70;;;;;;4991048;28;20457;-73
2022/01/07 00:11:06;;;;;;;7.90;2.33;;;4.30;91.70;;;;;;4981002;28;20104;-73
2022/01/07 00:13:33;;;;;;;5.28;2.20;;;4.30;91.80;;;;;;4992133;28;20052;-73
2022/01/07 00:16:00;;;;;;;5.85;2.95;;;4.30;91.80;;;;;;4986058;28;20042;-73
2022/01/07 00:18:28;;;;;;;8.70;2.85;;;4.30;91.70;;;;;;5006114;28;20056;-73
2022/01/07 00:20:55;;;;;;;6.28;2.20;;;4.30;91.60;;;;;;4980121;28;20685;-73
2022/01/07 00:23:23;;;;;;;9.43;3.28;;;4.40;91.70;;;;;;4989123;28;20045;-73
2022/01/07 00:25:50;;;;;;;6.68;2.55;;;4.30;91.60;;;;;;4986346;28;20119;-73
2022/01/07 00:28:18;;;;;;;7.10;2.88;;;4.40;91.60;;;;;;5008799;28;20804;-73
2022/01/07 00:30:45;;;;;;;6.20;2.72;;;4.40;91.70;;;;;;4984900;28;20555;-73
2022/01/07 00:33:13;;;;;;;5.68;2.63;;;4.40;91.60;;;;;;4991262;28;20058;-73
2022/01/07 00:35:42;;;;;;;7.25;2.80;;;4.30;91.50;;;;;;5004540;28;20074;-73
2022/01/07 00:38:09;;;;;;;7.20;2.75;;;4.30;91.50;;;;;;4971789;28;20054;-73
2022/01/07 00:40:37;;;;;;;6.03;2.78;;;4.20;91.40;;;;;;4969718;28;20050;-73
2022/01/07 00:43:04;;;;;;;6.55;2.78;;;4.20;91.50;;;;;;4984250;28;20058;-73
2022/01/07 00:45:32;;;;;;;5.78;3.28;;;4.10;91.50;;;;;;4979633;28;20060;-76
2022/01/07 00:48:00;;;;;;;6.20;3.05;;;4.10;91.60;;;;;;4987821;28;20079;-76
2022/01/07 00:50:29;;;;;;;7.18;2.90;;;4.00;91.50;;;;;;5001799;28;20038;-76
2022/01/07 00:52:57;;;;;;;6.15;3.33;;;3.90;91.60;;;;;;5010107;28;20140;-76
2022/01/07 00:55:26;;;;;;;11.05;3.40;;;3.90;91.70;;;;;;4974782;28;20081;-76
2022/01/07 00:57:54;;;;;;;8.85;3.17;;;3.80;91.80;;;;;;4971636;28;20097;-73
2022/01/07 01:00:23;;;;;;;5.60;2.92;;;3.80;92.10;;;;;;4968603;28;20052;-73
2022/01/07 01:02:51;;;;;;;8.05;3.15;;;3.80;92.00;;;;;;4991979;28;20107;-76
2022/01/07 01:05:19;;;;;;;6.97;3.23;;;3.80;92.10;;;;;;4979039;28;20191;-76
2022/01/07 01:07:46;;;;;;;6.22;3.17;;;3.70;92.10;;;;;;4973728;28;20046;-75
2022/01/07 01:10:15;;;;;;;5.35;3.15;;;3.60;92.20;;;;;;5001309;28;20054;-73
2022/01/07 01:12:47;;;;;;;8.15;3.03;;;3.60;92.30;;;;;;4991907;28;20140;-73
2022/01/07 01:15:20;;;;;;;7.88;3.63;;;3.60;92.40;;;;;;4983298;28;20082;-74
2022/01/07 01:17:47;;;;;;;6.93;3.72;;;3.50;92.50;;;;;;4985958;28;20047;-74
2022/01/07 01:20:14;;;;;;;7.20;3.53;;;3.50;92.60;;;;;;4972100;28;20050;-73
2022/01/07 01:22:42;;;;;;;7.95;3.38;;;3.50;92.60;;;;;;5000602;28;20131;-73
2022/01/07 01:25:09;;;;;;;6.55;3.50;;;3.50;92.70;;;;;;4970612;28;20147;-73
2022/01/07 01:27:37;;;;;;;10.45;3.75;;;3.50;92.80;;;;;;4999898;28;20140;-73
2022/01/07 01:30:06;;;;;;;8.30;3.50;;;3.40;92.80;;;;;;4985552;28;20061;-73
2022/01/07 01:32:34;;;;;;;7.88;3.80;;;3.40;92.90;;;;;;5002108;28;20950;-73
2022/01/07 01:35:02;;;;;;;9.40;3.75;;;3.40;92.90;;;;;;4998748;28;20078;-73
2022/01/07 01:37:30;;;;;;;6.82;3.28;;;3.30;93.00;;;;;;4984213;28;20171;-73
2022/01/07 01:39:58;;;;;;;5.53;2.78;;;3.30;93.00;;;;;;4959151;28;20112;-73
2022/01/07 01:42:25;;;;;;;6.68;3.40;;;3.30;93.10;;;;;;4983432;28;20053;-72
2022/01/07 01:44:52;;;;;;;5.40;2.47;;;3.30;93.10;;;;;;5003284;28;20042;-73
2022/01/07 01:47:20;;;;;;;8.05;2.70;;;3.30;93.10;;;;;;4979756;28;20046;-73
2022/01/07 01:49:47;;;;;;;6.78;2.60;;;3.30;93.20;;;;;;4996746;28;20077;-73
2022/01/07 01:52:15;;;;;;;11.30;3.40;;;3.30;93.20;;;;;;4971070;28;20077;-73
2022/01/07 01:54:43;;;;;;;5.72;3.17;;;3.30;93.30;;;;;;4993057;28;20069;-73
2022/01/07 01:57:11;;;;;;;7.53;3.17;;;3.30;93.30;;;;;;4983189;28;20879;-73
2022/01/07 01:59:38;;;;;;;8.48;4.05;;;3.30;93.40;;;;;;4983097;28;20053;-72
2022/01/07 02:02:07;;;;;;;9.77;3.43;;;3.30;93.40;;;;;;4974127;28;20041;-72
2022/01/07 02:04:38;;;;;;;9.70;3.00;;;3.30;93.40;;;;;;4988508;28;20055;-73
2022/01/07 02:07:08;;;;;;;6.28;2.78;;;3.30;93.40;;;;;;5008908;28;20512;-72
2022/01/07 02:09:36;;;;;;;5.72;3.10;;;3.30;93.50;;;;;;4969530;28;20141;-72
2022/01/07 02:12:05;;;;;;;7.38;2.50;;;3.30;93.50;;;;;;4986899;28;20133;-72
2022/01/07 02:14:34;;;;;;;7.60;2.85;;;3.30;93.50;;;;;;4987564;28;20045;-73
2022/01/07 02:17:09;;;;;;;6.85;2.78;;;3.30;93.60;;;;;;4991413;28;20049;-73
2022/01/07 02:19:37;;;;;;;5.05;2.53;;;3.30;93.50;;;;;;4982011;28;20172;-73
2022/01/07 02:22:06;;;;;;;4.47;2.15;;;3.40;93.50;;;;;;4971269;28;20050;-72
2022/01/07 02:24:35;;;;;;;11.23;3.20;;;3.40;93.60;;;;;;4981954;28;21383;-73
2022/01/07 02:27:02;;;;;;;8.07;2.60;;;3.40;93.60;;;;;;4997778;28;20045;-72
2022/01/07 02:29:30;;;;;;;13.63;4.13;;;3.40;93.60;;;;;;5002497;28;20036;-72
2022/01/07 02:31:57;;;;;;;7.45;3.33;;;3.40;93.60;;;;;;4974689;28;20068;-73
2022/01/07 02:34:24;;;;;;;7.72;2.75;;;3.40;93.60;;;;;;4986350;28;20125;-73
2022/01/07 02:36:51;;;;;;;7.35;2.90;;;3.40;93.60;;;;;;4986953;28;20045;-73
2022/01/07 02:39:21;;;;;;;7.22;3.28;;;3.40;93.70;;;;;;4987911;28;20137;-73
2022/01/07 02:41:48;;;;;;;7.25;2.83;;;3.40;93.70;;;;;;5010755;28;20093;-73
2022/01/07 02:44:15;;;;;;;5.85;2.85;;;3.40;93.70;;;;;;4997694;28;20115;-73
2022/01/07 02:46:42;;;;;;;5.75;2.30;;;3.50;93.80;;;;;;4965782;28;20112;-73
2022/01/07 02:49:11;;;;;;;7.72;2.72;;;3.40;93.70;;;;;;4982365;28;20050;-72
2022/01/07 02:51:39;;;;;;;6.63;2.53;;;3.50;93.70;;;;;;4993222;28;20041;-76
2022/01/07 02:54:07;;;;;;;4.75;2.28;;;3.50;93.70;;;;;;4983975;28;20050;-75
2022/01/07 02:56:36;;;;;;;7.97;3.15;;;3.50;93.70;;;;;;4982109;28;20149;-76
2022/01/07 02:59:04;;;;;;;11.48;3.17;;;3.50;93.70;;;;;;4984989;28;20446;-75
2022/01/07 03:01:32;;;;;;;12.43;3.70;;;3.50;93.80;;;;;;4990665;28;20072;-75
2022/01/07 03:03:59;;;;;;;6.10;2.65;;;3.40;93.80;;;;;;4974484;28;20056;-75
2022/01/07 03:06:27;;;;;;;9.25;3.15;;;3.50;93.80;;;;;;5011988;28;20041;-75
2022/01/07 03:08:56;;;;;;;7.25;3.40;;;3.40;93.80;;;;;;4985508;28;20065;-75
2022/01/07 03:11:24;;;;;;;8.07;3.10;;;3.40;93.80;;;;;;4972263;28;20100;-75
2022/01/07 03:13:51;;;;;;;9.93;3.03;;;3.40;93.80;;;;;;4984085;28;20447;-75
2022/01/07 03:16:18;;;;;;;5.88;3.05;;;3.40;93.80;;;;;;5008435;28;20045;-75
2022/01/07 03:18:46;;;;;;;7.78;2.58;;;3.40;93.80;;;;;;5006728;28;20136;-75
2022/01/07 03:21:14;;;;;;;5.90;2.60;;;3.40;93.90;;;;;;4984743;28;20383;-75
2022/01/07 03:23:42;;;;;;;5.20;2.55;;;3.40;93.90;;;;;;5003547;28;20054;-75
2022/01/07 03:26:09;;;;;;;8.30;2.30;;;3.40;93.90;;;;;;4981086;28;20132;-75
2022/01/07 03:28:38;;;;;;;6.50;2.58;;;3.40;93.90;;;;;;4975308;28;20053;-75
2022/01/07 03:31:06;;;;;;;8.90;3.20;;;3.40;93.90;;;;;;5001934;28;20283;-75
2022/01/07 03:33:33;;;;;;;5.57;2.17;;;3.40;93.90;;;;;;4971704;28;20054;-75
2022/01/07 03:36:01;;;;;;;6.47;2.38;;;3.40;93.90;;;;;;5006278;28;20046;-73
2022/01/07 03:38:28;;;;;;;5.40;2.33;;;3.50;94.00;;;;;;4990653;28;20057;-73
2022/01/07 03:40:55;;;;;;;3.08;1.42;;;3.50;94.00;;;;;;4990210;28;20069;-73
2022/01/07 03:43:23;;;;;;;4.30;1.90;;;3.50;94.00;;;;;;4986161;28;20046;-72
2022/01/07 03:45:51;;;;;;;7.00;1.60;;;3.50;94.00;;;;;;4999426;28;20566;-72
2022/01/07 03:48:18;;;;;;;4.43;1.52;;;3.50;94.00;;;;;;4989730;28;20058;-72
2022/01/07 03:50:45;;;;;;;4.18;1.88;;;3.50;94.00;;;;;;4978627;28;20074;-72
2022/01/07 03:53:12;;;;;;;4.07;1.90;;;3.50;94.00;;;;;;4981086;28;20079;-72
2022/01/07 03:55:39;;;;;;;5.32;2.17;;;3.60;94.00;;;;;;4988882;28;20054;-72
2022/01/07 03:58:06;;;;;;;6.10;2.00;;;3.50;94.00;;;;;;4974573;28;20057;-73
2022/01/07 04:00:37;;;;;;;7.18;1.88;;;3.50;94.00;;;;;;4989614;28;20659;-72
2022/01/07 04:03:08;;;;;;;6.43;1.70;;;3.50;94.00;;;;;;4980643;28;20035;-72
2022/01/07 04:05:35;;;;;;;4.60;1.90;;;3.50;94.10;;;;;;4975615;28;20120;-73
2022/01/07 04:08:03;;;;;;;2.78;1.33;;;3.50;94.10;;;;;;4988010;28;20046;-73
2022/01/07 04:10:30;;;;;;;3.85;2.08;;;3.60;94.10;;;;;;4984541;28;20074;-72
2022/01/07 04:12:58;;;;;;;3.30;1.58;;;3.60;94.10;;;;;;4989904;28;20060;-73
2022/01/07 04:15:25;;;;;;;3.60;1.63;;;3.60;94.10;;;;;;5003955;28;20581;-72
2022/01/07 04:17:54;;;;;;;3.13;1.70;;;3.50;94.10;;;;;;4964556;28;20042;-73
2022/01/07 04:20:25;;;;;;;2.97;1.35;;;3.50;94.10;;;;;;4982629;28;20096;-73
2022/01/07 04:22:53;;;;;;;3.95;1.67;;;3.50;94.10;;;;;;4987161;28;20322;-73
2022/01/07 04:25:21;;;;;;;5.30;2.10;;;3.50;94.10;;;;;;4991307;28;20054;-72
2022/01/07 04:27:53;;;;;;;4.95;1.88;;;3.50;94.10;;;;;;4985381;28;20390;-73
2022/01/07 04:30:22;;;;;;;3.30;1.50;;;3.50;94.20;;;;;;4988611;28;20053;-75
2022/01/07 04:32:49;;;;;;;4.72;2.10;;;3.50;94.20;;;;;;4985570;28;20054;-76
2022/01/07 04:35:17;;;;;;;4.78;2.30;;;3.50;94.20;;;;;;5000158;28;20196;-75
2022/01/07 04:37:44;;;;;;;5.30;2.33;;;3.50;94.40;;;;;;5000316;28;20056;-73
2022/01/07 04:40:14;;;;;;;4.97;2.38;;;3.50;94.20;;;;;;4983407;28;20064;-72
2022/01/07 04:42:41;;;;;;;6.63;3.30;;;3.40;94.20;;;;;;4983266;28;20084;-72
2022/01/07 04:45:09;;;;;;;6.65;2.28;;;3.40;94.20;;;;;;4981810;28;20110;-72
2022/01/07 04:47:36;;;;;;;4.70;1.83;;;3.40;94.30;;;;;;4989896;28;20456;-72
2022/01/07 04:50:07;;;;;;;6.32;2.65;;;3.30;94.30;;;;;;4982177;28;20099;-72
2022/01/07 04:52:38;;;;;;;4.55;2.25;;;3.40;94.40;;;;;;4986801;28;20057;-72
2022/01/07 04:55:06;;;;;;;3.03;1.60;;;3.30;94.30;;;;;;4981464;28;20742;-72
2022/01/07 04:57:35;;;;;;;4.55;2.47;;;3.30;94.40;;;;;;4977820;28;20081;-72
2022/01/07 05:00:04;;;;;;;3.22;1.60;;;3.30;94.40;;;;;;4985104;28;20116;-72
2022/01/07 05:02:31;;;;;;;3.83;2.07;;;3.30;94.40;;;;;;4965988;28;20680;-72
2022/01/07 05:04:58;;;;;;;3.47;1.40;;;3.30;94.40;;;;;;5001842;28;20057;-72
2022/01/07 05:07:25;;;;;;;6.22;1.48;;;3.30;94.40;;;;;;5019310;28;20056;-72
2022/01/07 05:09:52;;;;;;;5.30;1.95;;;3.30;94.40;;;;;;4981599;28;20128;-72
2022/01/07 05:12:19;;;;;;;3.63;1.90;;;3.30;94.40;;;;;;5004122;28;20069;-72
2022/01/07 05:14:46;;;;;;;4.40;2.70;;;3.30;94.50;;;;;;4975137;28;20140;-73
2022/01/07 05:17:13;;;;;;;4.30;2.67;;;3.30;94.70;;;;;;4976808;28;20399;-72
2022/01/07 05:19:40;;;;;;;4.07;2.40;;;3.40;94.50;;;;;;4986406;28;20054;-72
2022/01/07 05:22:08;;;;;;;2.22;1.45;;;3.40;94.50;;;;;;4998377;28;20136;-72
2022/01/07 05:24:35;;;;;;;3.38;1.95;;;3.40;94.50;;;;;;4981156;28;20033;-72
2022/01/07 05:27:02;;;;;;;3.35;2.00;;;3.40;94.50;;;;;;4980074;28;20038;-72
2022/01/07 05:29:33;;;;;;;4.75;2.38;;;3.40;94.50;;;;;;5006507;28;20046;-72
2022/01/07 05:32:06;;;;;;;4.40;2.28;;;3.50;94.50;;;;;;4979865;28;20049;-71
2022/01/07 05:34:34;;;;;;;3.75;2.10;;;3.50;94.50;;;;;;4973897;28;20053;-72
2022/01/07 05:37:01;;;;;;;5.25;2.63;;;3.50;94.60;;;;;;4973000;28;20062;-72
2022/01/07 05:39:28;;;;;;;3.63;2.08;;;3.50;94.50;;;;;;5002493;28;20638;-72
2022/01/07 05:41:57;;;;;;;4.75;2.53;;;3.50;94.80;;;;;;4975869;28;20054;-74
2022/01/07 05:44:24;;;;;;;4.40;2.03;;;3.60;94.60;;;;;;4992752;28;20041;-74
2022/01/07 05:46:51;;;;;;;2.78;1.60;;;3.60;94.60;;;;;;4988994;28;20165;-72
2022/01/07 05:49:22;;;;;;;3.10;1.70;;;3.60;94.60;;;;;;4958785;28;20121;-72
2022/01/07 05:51:48;;;;;;;3.80;1.60;;;3.70;94.60;;;;;;4975229;28;20046;-72
2022/01/07 05:54:19;;;;;;;4.38;2.00;;;3.70;94.60;;;;;;4982971;28;20136;-75
2022/01/07 05:56:46;;;;;;;3.10;1.77;;;3.70;94.60;;;;;;4995207;28;20042;-75
2022/01/07 05:59:13;;;;;;;3.55;2.03;;;3.70;94.60;;;;;;4988245;28;20064;-75
2022/01/07 06:01:40;;;;;;;6.88;2.92;;;3.80;94.60;;;;;;4993845;28;20052;-75
2022/01/07 06:04:08;;;;;;;3.72;2.50;;;3.70;94.60;;;;;;4989684;28;20123;-75
2022/01/07 06:06:35;;;;;;;3.22;2.13;;;3.80;94.60;;;;;;4991963;28;20054;-74
2022/01/07 06:09:02;;;;;;;4.13;2.50;;;3.80;94.60;;;;;;4986675;28;20449;-75
2022/01/07 06:11:31;;;;;;;4.75;2.38;;;3.90;94.70;;;;;;4994351;28;20053;-75
2022/01/07 06:14:01;;;;;;;4.93;2.78;;;3.90;94.70;;;;;;4995810;28;20058;-75
2022/01/07 06:16:28;;;;;;;4.93;3.20;;;3.90;94.70;;;;;;4971183;28;20050;-75
2022/01/07 06:18:59;;;;;;;10.40;4.55;;;3.90;94.70;;;;;;4962224;28;20038;-75
2022/01/07 06:21:26;;;;;;;6.95;3.08;;;3.90;94.70;;;;;;4977672;28;20054;-75
2022/01/07 06:23:53;;;;;;;3.75;2.47;;;4.00;94.70;;;;;;4989366;28;20050;-75
2022/01/07 06:26:20;;;;;;;3.47;2.00;;;4.00;94.70;;;;;;4992782;28;20061;-74
2022/01/07 06:28:48;;;;;;;3.60;2.05;;;4.00;94.70;;;;;;4982940;28;20054;-74
2022/01/07 06:31:15;;;;;;;4.45;2.55;;;4.10;94.70;;;;;;4980960;28;20103;-75
2022/01/07 06:33:42;;;;;;;5.30;3.05;;;4.10;94.70;;;;;;4978003;28;20099;-76
2022/01/07 06:36:09;;;;;;;5.43;2.67;;;4.10;94.70;;;;;;4988529;28;20092;-74
2022/01/07 06:38:36;;;;;;;6.32;2.70;;;4.20;94.70;;;;;;4982940;28;20073;-75
2022/01/07 06:41:03;;;;;;;6.57;3.65;;;4.20;94.70;;;;;;4975600;28;20065;-75
2022/01/07 06:43:30;;;;;;;6.63;3.42;;;4.20;94.70;;;;;;5006014;28;20125;-75
2022/01/07 06:45:58;;;;;;;6.65;3.38;;;4.20;94.70;;;;;;4999397;28;20041;-75
2022/01/07 06:48:25;;;;;;;5.15;2.97;;;4.30;94.80;;;;;;5012198;28;20398;-75
2022/01/07 06:50:52;;;;;;;6.22;3.78;;;4.30;94.80;;;;;;4993623;28;20050;-75
2022/01/07 06:53:19;;;;;;;6.32;3.65;;;4.30;94.80;;;;;;4983154;28;20064;-75
2022/01/07 06:55:57;;;;;;;5.40;3.22;;;4.30;94.80;;;;;;4997730;28;20562;-75
2022/01/07 06:58:24;;;;;;;5.15;2.95;;;4.40;94.80;;;;;;5010439;28;20046;-75
2022/01/07 07:00:51;;;;;;;5.05;3.20;;;4.40;94.80;;;;;;4987103;28;20120;-75
2022/01/07 07:03:19;;;;;;;6.75;4.00;;;4.40;94.80;;;;;;5010216;28;20057;-76
2022/01/07 07:05:46;;;;;;;6.82;3.92;;;4.40;94.80;;;;;;4987532;28;20050;-72
2022/01/07 07:08:13;;;;;;;6.80;3.38;;;4.40;94.80;;;;;;4968260;28;20061;-72
2022/01/07 07:10:40;;;;;;;8.05;4.93;;;4.50;95.10;;;;;;4988925;28;20041;-72
2022/01/07 07:13:08;;;;;;;9.20;4.82;;;4.50;94.80;;;;;;4990992;28;20489;-72
2022/01/07 07:15:35;;;;;;;8.02;4.80;;;4.50;94.80;;;;;;4983754;28;21259;-72
2022/01/07 07:18:02;;;;;;;6.85;3.90;;;4.50;95.10;;;;;;4975359;28;20062;-72
2022/01/07 07:20:29;;;;;;;7.25;4.63;;;4.50;95.10;;;;;;4984403;28;20053;-72
2022/01/07 07:22:56;;;;;;;6.95;4.80;;;4.50;94.80;;;;;;4964693;28;20066;-73
2022/01/07 07:25:23;;;;;;;8.65;4.32;;;4.60;94.80;;;;;;4979916;28;20060;-72
2022/01/07 07:27:51;;;;;;;7.55;4.90;;;4.60;94.80;;;;;;4981920;28;20057;-72
2022/01/07 07:30:21;;;;;;;7.15;4.45;;;4.60;94.80;;;;;;4985363;28;20610;-73
2022/01/07 07:32:53;;;;;;;9.00;4.75;;;4.60;94.80;;;;;;5008013;28;20517;-72
2022/01/07 07:37:51;;;;;;;6.90;3.30;;;4.60;94.80;;;;;;4986474;28;20146;-73
2022/01/07 07:40:18;;;;;;;6.32;3.13;;;4.70;94.80;;;;;;5013151;28;20821;-76
2022/01/07 07:42:47;;;;;;;6.47;4.30;;;4.70;94.80;;;;;;4974766;28;20571;-76
2022/01/07 07:45:18;;;;;;;11.80;6.25;;;4.70;94.80;;;;;;4977827;28;20050;-75
2022/01/07 07:47:45;;;;;;;9.68;4.97;;;4.70;94.80;;;;;;4979550;28;20038;-75
2022/01/07 07:50:14;;;;;;;7.20;5.07;;;4.70;94.90;;;;;;4951116;28;20827;-77
2022/01/07 07:52:41;;;;;;;7.97;4.90;;;4.80;94.90;;;;;;4979869;28;20053;-77
2022/01/07 07:55:08;;;;;;;8.75;5.70;;;4.80;94.90;;;;;;4976611;28;20050;-77
2022/01/07 07:57:35;;;;;;;9.57;5.72;;;4.80;94.90;;;;;;4983433;28;20493;-78
2022/01/07 08:00:04;;;;;;;8.18;5.30;;;4.80;94.90;;;;;;4969472;28;20565;-77
2022/01/07 08:02:39;;;;;;;8.27;5.57;;;4.80;94.90;;;;;;5006545;28;20046;-77
2022/01/07 08:05:07;;;;;;;9.07;5.65;;;4.80;94.90;;;;;;5008763;28;20658;-78
2022/01/07 08:07:34;;;;;;;10.80;6.47;;;4.80;94.90;;;;;;4983670;28;20042;-76
2022/01/07 08:10:01;;;;;;;8.20;5.57;;;4.90;94.90;;;;;;4985844;28;20049;-78
2022/01/07 08:12:50;;;;;;;10.95;5.43;;;4.90;94.90;;;;;;4981687;28;20045;-77
2022/01/07 08:18:01;;;;;;;8.20;5.68;;;4.90;94.90;;;;;;4996466;28;20052;-77
2022/01/07 08:20:28;;;;;;;9.25;5.63;;;4.90;94.80;;;;;;4974789;28;20133;-77
2022/01/07 08:22:56;;;;;;;8.05;4.78;;;5.00;94.80;;;;;;4990057;28;20104;-78
2022/01/07 08:25:24;;;;;;;9.23;5.65;;;5.00;94.90;;;;;;5004125;28;20068;-77
2022/01/07 08:27:51;;;;;;;8.00;5.35;;;5.00;94.80;;;;;;4981929;28;20070;-77
2022/01/07 08:30:24;;;;;;;10.38;6.15;;;5.00;94.80;;;;;;4989503;28;20045;-78
2022/01/07 08:35:38;;;;;;;11.60;6.63;;;5.00;94.80;;;;;;5006796;28;20049;-77
2022/01/07 08:38:05;;;;;;;10.98;6.47;;;5.10;94.90;;;;;;4975040;28;20078;-77
2022/01/07 08:40:34;;;;;;;11.55;6.55;;;5.10;94.80;;;;;;4970820;28;20089;-77
2022/01/07 08:43:01;;;;;;;9.68;6.18;;;5.10;94.80;;;;;;5010790;28;20097;-74
2022/01/07 08:45:28;;;;;;;11.02;6.15;;;5.10;94.80;;;;;;4967510;28;20038;-74
2022/01/07 08:47:55;;;;;;;8.98;5.43;;;5.10;94.80;;;;;;4982290;28;20088;-74
2022/01/07 08:50:23;;;;;;;10.38;6.45;;;5.20;94.90;;;;;;4988314;28;20120;-74
2022/01/07 08:52:50;;;;;;;9.23;6.18;;;5.10;94.80;;;;;;4996688;28;20045;-74
2022/01/07 08:55:17;;;;;;;11.95;6.95;;;5.20;94.80;;;;;;4974710;28;20848;-74
2022/01/07 08:57:44;;;;;;;8.40;5.60;;;5.20;94.80;;;;;;4986768;28;20046;-74
2022/01/07 09:00:12;;;;;;;9.63;6.70;;;5.20;94.80;;;;;;4965997;28;20506;-74
2022/01/07 09:02:39;;;;;;;9.07;5.88;;;5.20;94.80;;;;;;4993534;28;20038;-74
2022/01/07 09:05:07;;;;;;;9.98;7.05;;;5.30;94.80;;;;;;4993960;28;20119;-74
2022/01/07 09:07:34;;;;;;;12.23;5.90;;;5.30;94.80;;;;;;4982593;28;20135;-74
2022/01/07 09:10:01;;;;;;;11.27;6.10;;;5.30;95.00;;;;;;4975432;28;20075;-74
2022/01/07 09:12:28;;;;;;;9.98;6.70;;;5.40;94.80;;;;;;4992873;28;20690;-74
2022/01/07 09:14:58;;;;;;;15.88;7.38;;;5.40;94.80;;;;;;4984562;28;20042;-74
2022/01/07 09:17:26;;;;;;;13.82;7.47;;;5.40;94.80;;;;;;5009674;28;20042;-74
2022/01/07 09:19:53;;;;;;;13.15;7.70;;;5.40;94.70;;;;;;5004353;28;20060;-74
2022/01/07 09:22:20;;;;;;;13.57;7.90;;;5.50;94.70;;;;;;4968993;28;20077;-74
2022/01/07 09:24:47;;;;;;;10.20;8.05;;;5.40;94.70;;;;;;4979926;28;20069;-74
2022/01/07 09:27:14;;;;;;;9.07;6.32;;;5.50;94.70;;;;;;4970173;28;20057;-73
2022/01/07 09:29:41;;;;;;;9.55;4.97;;;5.50;94.70;;;;;;4996519;28;20604;-78
2022/01/07 09:32:09;;;;;;;9.25;6.03;;;5.50;94.70;;;;;;5020954;28;20121;-77
2022/01/07 09:34:36;;;;;;;8.68;5.93;;;5.50;94.70;;;;;;5018469;28;20045;-77
2022/01/07 09:37:04;;;;;;;7.63;5.88;;;5.50;94.70;;;;;;4987168;28;20053;-75
2022/01/07 09:39:36;;;;;;;10.52;6.28;;;5.50;94.70;;;;;;4999855;28;20084;-76
2022/01/07 09:42:05;;;;;;;9.55;5.55;;;5.60;94.70;;;;;;4970913;28;20140;-75
2022/01/07 09:44:40;;;;;;;11.65;7.85;;;5.60;94.70;;;;;;4991798;28;20093;-76
2022/01/07 09:47:10;;;;;;;9.52;5.60;;;5.70;94.70;;;;;;4994998;28;20096;-76
2022/01/07 09:49:38;;;;;;;10.30;6.63;;;5.70;94.60;;;;;;5026447;28;20045;-76
2022/01/07 09:52:07;;;;;;;9.40;7.28;;;5.70;94.60;;;;;;4995832;28;20402;-76
2022/01/07 09:54:38;;;;;;;9.48;6.25;;;5.80;94.50;;;;;;4980068;28;20053;-76
2022/01/07 09:57:06;;;;;;;8.50;5.28;;;5.80;94.60;;;;;;4993934;28;20057;-77
2022/01/07 09:59:34;;;;;;;9.13;5.70;;;5.80;94.60;;;;;;4998546;28;20038;-78
2022/01/07 10:02:03;;;;;;;9.60;5.93;;;5.90;94.50;;;;;;4994702;28;20050;-76
2022/01/07 10:04:40;;;;;;;7.63;4.93;;;5.90;94.50;;;;;;5011662;28;20052;-77
2022/01/07 10:07:21;;;;;;;8.27;4.93;;;6.00;94.50;;;;;;5014237;28;20046;-78
2022/01/07 10:10:06;;;;;;;7.78;5.63;;;6.00;94.50;;;;;;4978037;28;20482;-77
2022/01/07 10:13:02;;;;;;;8.75;5.47;;;6.00;94.70;;;;;;4976993;28;20050;-73
2022/01/07 10:15:35;;;;;;;9.43;5.90;;;6.00;94.40;;;;;;4987415;28;20100;-74
2022/01/07 10:18:11;;;;;;;10.43;6.10;;;6.10;94.40;;;;;;4983047;28;20056;-74
2022/01/07 10:20:44;;;;;;;10.82;6.63;;;6.10;94.30;;;;;;5011315;28;20131;-74
2022/01/07 10:23:15;;;;;;;;;;;6.10;94.30;;;;;;5003098;28;20056;-75
2022/01/07 10:25:44;;;;;;;10.40;6.35;;;6.20;94.30;;;;;;5006590;28;20024;-73
2022/01/07 10:28:19;;;;;;;10.85;6.50;;;6.20;94.20;;;;;;4996535;28;20049;-73
2022/01/07 10:30:49;;;;;;;10.75;6.93;;;6.30;94.20;;;;;;5014102;28;20333;-73
2022/01/07 10:33:27;;;;;;;11.48;7.13;;;6.30;94.10;;;;;;4991160;28;20046;-75
2022/01/07 10:36:07;;;;;;;11.52;6.88;;;6.30;94.00;;;;;;4977882;28;20053;-75
2022/01/07 10:38:36;;;;;;;8.07;6.10;;;6.30;94.00;;;;;;4987797;28;20061;-73
2022/01/07 10:41:05;;;;;;;8.93;5.72;;;6.20;94.10;;;;;;4975824;28;20128;-73
2022/01/07 10:43:34;;;;;;;10.50;6.32;;;6.20;94.10;;;;;;4972447;28;20231;-73
2022/01/07 10:46:31;;;;;;;12.73;6.72;;;6.20;94.10;;;;;;4968041;28;20066;-73
2022/01/07 10:49:00;;;;;;;10.02;6.32;;;6.20;94.20;;;;;;4988156;28;20046;-74
2022/01/07 10:51:43;;;;;;;11.57;6.72;;;6.10;94.20;;;;;;4987020;28;20161;-74
2022/01/07 10:54:16;;;;;;;11.70;6.35;;;6.10;94.20;;;;;;5001522;28;20107;-76
2022/01/07 10:56:51;;;;;;;9.98;6.43;;;6.10;94.20;;;;;;4981620;28;20631;-75
2022/01/07 10:59:19;;;;;;;8.93;5.78;;;6.20;94.30;;;;;;4991033;28;20080;-75
2022/01/07 11:01:48;;;;;;;8.80;5.80;;;6.20;94.30;;;;;;5006790;28;20061;-75
2022/01/07 11:04:18;;;;;;;7.53;5.28;;;6.10;94.20;;;;;;5015776;28;20108;-75
2022/01/07 11:06:48;;;;;;;10.15;7.07;;;6.20;94.20;;;;;;4979399;28;20049;-75
2022/01/07 11:09:17;;;;;;;9.73;6.47;;;6.10;94.20;;;;;;5015484;28;20526;-75
2022/01/07 11:12:02;;;;;;;11.15;6.85;;;6.20;94.30;;;;;;5013394;28;20052;-74
2022/01/07 11:14:33;;;;;;;10.60;6.68;;;6.30;94.20;;;;;;4996125;28;20381;-75
2022/01/07 11:17:04;;;;;;;11.38;5.97;;;6.20;94.20;;;;;;5007346;28;20065;-74
2022/01/07 11:19:42;;;;;;;9.20;6.10;;;6.30;94.20;;;;;;4972686;28;20049;-74
2022/01/07 11:22:11;;;;;;;9.07;5.60;;;6.30;94.10;;;;;;5011711;28;20875;-74
2022/01/07 11:24:50;;;;;;;9.00;5.95;;;6.30;94.10;;;;;;4985584;28;20038;-74
2022/01/07 11:27:26;;;;;;;8.02;5.72;;;6.30;94.10;;;;;;5016407;28;20053;-73
2022/01/07 11:30:01;;;;;;;9.43;6.10;;;6.30;94.10;;;;;;4986934;28;20156;-73
2022/01/07 11:32:44;;;;;;;7.95;5.50;;;6.30;94.10;;;;;;4980437;28;20073;-73
2022/01/07 11:35:17;;;;;;;9.00;5.43;;;6.30;94.10;;;;;;4997447;28;20108;-73
2022/01/07 11:37:58;;;;;;;6.43;4.53;;;6.30;94.10;;;;;;5015610;28;20059;-73
2022/01/07 11:40:31;;;;;;;7.63;5.03;;;6.30;94.10;;;;;;4990058;28;20464;-74
2022/01/07 11:43:17;;;;;;;7.78;4.30;;;6.40;94.10;;;;;;4998624;28;20113;-74
2022/01/07 11:45:46;;;;;;;8.68;5.10;;;6.40;94.10;;;;;;4986366;28;20051;-75
2022/01/07 11:48:15;;;;;;;9.35;5.35;;;6.40;94.00;;;;;;4991210;28;20054;-75
2022/01/07 11:50:59;;;;;;;10.55;4.68;;;6.40;94.00;;;;;;4999872;28;20192;-74
2022/01/07 11:53:41;;;;;;;8.20;4.53;;;6.40;94.00;;;;;;5007073;28;21227;-73
2022/01/07 11:56:10;;;;;;;9.35;5.43;;;6.40;94.00;;;;;;4991336;28;20448;-74
2022/01/07 11:58:42;;;;;;;7.45;5.47;;;6.40;93.90;;;;;;4986315;28;20057;-74
2022/01/07 12:01:30;;;;;;;11.57;5.47;;;6.40;93.90;;;;;;4992233;28;20030;-72
2022/01/07 12:04:13;;;;;;;11.88;4.80;;;6.40;93.80;;;;;;5000906;28;20509;-73
2022/01/07 12:06:40;;;;;;;10.88;5.28;;;6.50;93.80;;;;;;4982541;28;20042;-72
2022/01/07 12:09:10;;;;;;;9.50;5.30;;;6.50;93.70;;;;;;4985891;28;20048;-73
2022/01/07 12:11:43;;;;;;;11.07;5.78;;;6.50;93.60;;;;;;4989504;28;20045;-74
2022/01/07 12:14:19;;;;;;;12.35;5.30;;;6.50;93.60;;;;;;4977892;28;20049;-74
2022/01/07 12:16:50;;;;;;;11.20;5.90;;;6.60;93.40;;;;;;4981323;28;20054;-74
2022/01/07 12:19:17;;;;;;;7.50;4.68;;;6.60;93.20;;;;;;4991590;28;20054;-74
2022/01/07 12:21:48;;;;;;;9.77;4.65;;;6.60;93.20;;;;;;4965103;28;20049;-74
2022/01/07 12:24:36;;;;;;;8.63;4.65;;;6.70;93.10;;;;;;4988997;28;20047;-75
2022/01/07 12:27:07;;;;;;;9.95;3.53;;;6.80;93.10;;;;;;4994194;28;20045;-74
2022/01/07 12:29:44;;;;;;;8.75;3.83;;;6.80;93.10;;;;;;4989700;28;20056;-74
2022/01/07 12:32:13;;;;;;;8.50;4.05;;;6.80;93.00;;;;;;4978973;28;20406;-73
2022/01/07 12:34:43;;;;;;;5.75;2.97;;;6.90;92.90;;;;;;4964318;28;20064;-72
2022/01/07 12:37:14;;;;;;;7.97;4.47;;;6.90;92.90;;;;;;5005849;28;20065;-74
2022/01/07 12:39:44;;;;;;;15.57;4.15;;;7.00;92.80;;;;;;4977641;28;20046;-73
2022/01/07 12:42:12;;;;;;;8.90;4.22;;;7.00;92.70;;;;;;4984825;28;20069;-73
2022/01/07 12:44:46;;;;;;;8.80;4.30;;;7.00;92.60;;;;;;4983927;28;20052;-73
2022/01/07 12:47:15;;;;;;;9.75;3.50;;;7.10;92.50;;;;;;5002723;28;20046;-74
2022/01/07 12:49:51;;;;;;;6.88;3.33;;;7.00;92.40;;;;;;4989762;28;20070;-74
2022/01/07 12:52:37;;;;;;;9.88;4.05;;;7.00;92.50;;;;;;4988172;28;20472;-74
2022/01/07 12:55:19;;;;;;;7.82;3.70;;;7.00;92.40;;;;;;4977685;28;20515;-75
2022/01/07 12:57:52;;;;;;;5.45;3.38;;;7.00;92.50;;;;;;4992974;28;20062;-73
2022/01/07 13:00:22;;;;;;;10.55;4.13;;;7.00;92.50;;;;;;4967020;28;20050;-74
2022/01/07 13:02:54;;;;;;;9.07;4.05;;;7.00;92.50;;;;;;4979454;28;20065;-74
2022/01/07 13:05:23;;;;;;;8.40;4.03;;;7.00;92.50;;;;;;5000947;28;20049;-74
2022/01/07 13:08:05;;;;;;;8.75;4.40;;;7.00;92.50;;;;;;4981776;28;20422;-73
2022/01/07 13:10:36;;;;;;;8.02;3.80;;;7.00;92.40;;;;;;4984535;28;20129;-76
2022/01/07 13:13:05;;;;;;;8.13;4.25;;;6.90;92.30;;;;;;4976820;28;20064;-72
2022/01/07 13:15:46;;;;;;;9.98;4.90;;;6.90;92.10;;;;;;5020413;28;20053;-73